sensor_id;sensor_type;location;lat;lon;timestamp;pressure;altitude;pressure_sealevel;temperature;humidity
40502;BME280;29631;49.168;9.848;2022-10-13T00:01:39;97149.69;;;17.19;92.97
40502;BME280;29631;49.168;9.848;2022-10-13T00:04:05;97162.44;;;17.17;92.52
40502;BME280;29631;49.168;9.848;2022-10-13T00:06:31;97145.88;;;17.03;92.76
40502;BME280;29631;49.168;9.848;2022-10-13T00:08:57;97170.66;;;17.04;92.69
40502;BME280;29631;49.168;9.848;2022-10-13T00:11:26;97153.06;;;16.91;92.82
40502;BME280;29631;49.168;9.848;2022-10-13T00:13:57;97163.84;;;16.96;93.07
40502;BME280;29631;49.168;9.848;2022-10-13T00:16:25;97157.81;;;17.01;93.35
40502;BME280;29631;49.168;9.848;2022-10-13T00:18:51;97105.47;;;16.72;93.02
40502;BME280;29631;49.168;9.848;2022-10-13T00:21:20;97146.81;;;16.97;93.30
40502;BME280;29631;49.168;9.848;2022-10-13T00:23:47;97164.53;;;17.15;93.20
40502;BME280;29631;49.168;9.848;2022-10-13T00:26:14;97152.69;;;17.11;92.64
40502;BME280;29631;49.168;9.848;2022-10-13T00:28:41;97162.31;;;17.23;92.55
40502;BME280;29631;49.168;9.848;2022-10-13T00:31:23;97162.22;;;17.30;92.92
40502;BME280;29631;49.168;9.848;2022-10-13T00:33:50;97166.75;;;17.41;92.45
40502;BME280;29631;49.168;9.848;2022-10-13T00:36:18;97168.34;;;17.42;92.66
40502;BME280;29631;49.168;9.848;2022-10-13T00:38:44;97158.75;;;17.41;92.64
40502;BME280;29631;49.168;9.848;2022-10-13T00:41:11;97176.81;;;17.50;92.81
40502;BME280;29631;49.168;9.848;2022-10-13T00:44:01;97181.41;;;17.54;92.88
40502;BME280;29631;49.168;9.848;2022-10-13T00:46:33;97161.97;;;17.43;92.39
40502;BME280;29631;49.168;9.848;2022-10-13T00:49:12;97167.53;;;17.52;92.98
40502;BME280;29631;49.168;9.848;2022-10-13T00:51:43;97151.31;;;17.43;93.06
40502;BME280;29631;49.168;9.848;2022-10-13T00:54:15;97171.56;;;17.55;92.44
40502;BME280;29631;49.168;9.848;2022-10-13T00:56:43;97154.09;;;17.48;92.02
40502;BME280;29631;49.168;9.848;2022-10-13T00:59:20;97148.97;;;17.46;92.27
40502;BME280;29631;49.168;9.848;2022-10-13T01:01:49;97168.06;;;17.66;92.31
40502;BME280;29631;49.168;9.848;2022-10-13T01:04:16;97156.25;;;17.62;92.01
40502;BME280;29631;49.168;9.848;2022-10-13T01:06:45;97160.31;;;17.64;92.10
40502;BME280;29631;49.168;9.848;2022-10-13T01:09:12;97152.22;;;17.59;92.09
40502;BME280;29631;49.168;9.848;2022-10-13T01:23:22;97161.50;;;17.85;92.57
40502;BME280;29631;49.168;9.848;2022-10-13T01:26:17;97151.66;;;17.85;92.87
40502;BME280;29631;49.168;9.848;2022-10-13T01:29:08;97154.88;;;17.87;92.09
40502;BME280;29631;49.168;9.848;2022-10-13T01:32:00;97149.53;;;17.87;92.33
40502;BME280;29631;49.168;9.848;2022-10-13T01:34:46;97151.66;;;17.85;92.56
40502;BME280;29631;49.168;9.848;2022-10-13T01:37:33;97138.53;;;17.84;92.63
40502;BME280;29631;49.168;9.848;2022-10-13T01:40:25;97139.44;;;17.89;92.02
40502;BME280;29631;49.168;9.848;2022-10-13T01:43:15;97151.50;;;17.92;92.85
40502;BME280;29631;49.168;9.848;2022-10-13T01:48:30;97134.13;;;17.89;92.35
40502;BME280;29631;49.168;9.848;2022-10-13T01:50:58;97127.66;;;17.85;92.17
40502;BME280;29631;49.168;9.848;2022-10-13T01:53:25;97144.41;;;17.97;92.29
40502;BME280;29631;49.168;9.848;2022-10-13T01:55:55;97136.66;;;17.96;92.68
40502;BME280;29631;49.168;9.848;2022-10-13T01:58:24;97136.00;;;17.89;92.49
40502;BME280;29631;49.168;9.848;2022-10-13T02:03:43;97143.25;;;17.93;92.18
40502;BME280;29631;49.168;9.848;2022-10-13T02:06:23;97122.31;;;17.85;92.77
40502;BME280;29631;49.168;9.848;2022-10-13T02:09:02;97127.25;;;17.93;92.02
40502;BME280;29631;49.168;9.848;2022-10-13T02:11:30;97125.72;;;17.97;92.46
40502;BME280;29631;49.168;9.848;2022-10-13T02:14:10;97127.69;;;18.02;92.57
40502;BME280;29631;49.168;9.848;2022-10-13T02:16:42;97125.81;;;18.02;91.97
40502;BME280;29631;49.168;9.848;2022-10-13T02:19:14;97139.84;;;18.09;92.33
40502;BME280;29631;49.168;9.848;2022-10-13T02:21:41;97123.16;;;18.02;92.26
40502;BME280;29631;49.168;9.848;2022-10-13T02:24:07;97123.72;;;18.04;92.00
40502;BME280;29631;49.168;9.848;2022-10-13T02:26:34;97135.28;;;18.10;91.51
40502;BME280;29631;49.168;9.848;2022-10-13T02:29:11;97129.63;;;18.06;92.31
40502;BME280;29631;49.168;9.848;2022-10-13T02:31:38;97124.84;;;18.08;92.24
40502;BME280;29631;49.168;9.848;2022-10-13T02:34:04;97114.34;;;18.02;91.82
40502;BME280;29631;49.168;9.848;2022-10-13T02:36:30;97121.78;;;18.00;92.10
40502;BME280;29631;49.168;9.848;2022-10-13T02:38:56;97108.34;;;17.95;91.76
40502;BME280;29631;49.168;9.848;2022-10-13T02:41:22;97119.91;;;18.00;92.05
40502;BME280;29631;49.168;9.848;2022-10-13T02:43:48;97112.94;;;17.99;92.05
40502;BME280;29631;49.168;9.848;2022-10-13T02:46:13;97111.34;;;17.98;91.83
40502;BME280;29631;49.168;9.848;2022-10-13T02:48:39;97130.44;;;18.07;91.53
40502;BME280;29631;49.168;9.848;2022-10-13T02:51:05;97122.56;;;18.00;92.13
40502;BME280;29631;49.168;9.848;2022-10-13T02:53:31;97123.22;;;18.07;91.69
40502;BME280;29631;49.168;9.848;2022-10-13T02:55:56;97123.31;;;18.12;91.51
40502;BME280;29631;49.168;9.848;2022-10-13T02:58:22;97121.59;;;18.06;91.81
40502;BME280;29631;49.168;9.848;2022-10-13T03:00:48;97131.03;;;18.09;91.67
40502;BME280;29631;49.168;9.848;2022-10-13T03:03:14;97116.09;;;17.96;92.48
40502;BME280;29631;49.168;9.848;2022-10-13T03:05:40;97128.56;;;18.07;91.79
40502;BME280;29631;49.168;9.848;2022-10-13T03:08:05;97128.56;;;18.07;92.41
40502;BME280;29631;49.168;9.848;2022-10-13T03:10:31;97105.44;;;17.96;91.37
40502;BME280;29631;49.168;9.848;2022-10-13T03:12:58;97128.66;;;18.12;92.21
40502;BME280;29631;49.168;9.848;2022-10-13T03:15:24;97124.41;;;18.11;91.38
40502;BME280;29631;49.168;9.848;2022-10-13T03:17:50;97111.50;;;18.08;91.76
40502;BME280;29631;49.168;9.848;2022-10-13T03:20:16;97119.59;;;18.13;92.43
40502;BME280;29631;49.168;9.848;2022-10-13T03:22:42;97117.19;;;18.12;92.40
40502;BME280;29631;49.168;9.848;2022-10-13T03:25:08;97107.72;;;18.04;92.28
40502;BME280;29631;49.168;9.848;2022-10-13T03:27:34;97131.56;;;18.22;92.49
40502;BME280;29631;49.168;9.848;2022-10-13T03:30:00;97129.56;;;18.17;92.61
40502;BME280;29631;49.168;9.848;2022-10-13T03:32:29;97113.22;;;18.14;92.28
40502;BME280;29631;49.168;9.848;2022-10-13T03:34:55;97107.88;;;18.14;92.04
40502;BME280;29631;49.168;9.848;2022-10-13T03:37:21;97104.88;;;18.11;92.29
40502;BME280;29631;49.168;9.848;2022-10-13T03:39:47;97120.50;;;18.18;92.20
40502;BME280;29631;49.168;9.848;2022-10-13T03:42:12;97112.19;;;18.15;92.03
40502;BME280;29631;49.168;9.848;2022-10-13T03:44:38;97109.50;;;18.15;91.84
40502;BME280;29631;49.168;9.848;2022-10-13T03:47:04;97110.81;;;18.13;92.11
40502;BME280;29631;49.168;9.848;2022-10-13T03:49:29;97097.50;;;18.01;92.02
40502;BME280;29631;49.168;9.848;2022-10-13T03:51:55;97104.56;;;18.07;92.06
40502;BME280;29631;49.168;9.848;2022-10-13T03:54:21;97105.13;;;18.09;92.25
40502;BME280;29631;49.168;9.848;2022-10-13T03:56:47;97094.94;;;18.06;92.45
40502;BME280;29631;49.168;9.848;2022-10-13T03:59:13;97099.47;;;18.06;92.13
40502;BME280;29631;49.168;9.848;2022-10-13T04:01:41;97093.22;;;18.00;92.29
40502;BME280;29631;49.168;9.848;2022-10-13T04:04:10;97080.75;;;17.89;92.07
40502;BME280;29631;49.168;9.848;2022-10-13T04:06:36;97089.09;;;17.93;91.88
40502;BME280;29631;49.168;9.848;2022-10-13T04:09:02;97098.09;;;17.75;91.75
40502;BME280;29631;49.168;9.848;2022-10-13T04:11:28;97099.06;;;17.69;92.01
40502;BME280;29631;49.168;9.848;2022-10-13T04:13:55;97106.00;;;17.70;91.81
40502;BME280;29631;49.168;9.848;2022-10-13T04:16:27;97095.63;;;17.57;92.18
40502;BME280;29631;49.168;9.848;2022-10-13T04:18:56;97086.50;;;17.53;92.34
40502;BME280;29631;49.168;9.848;2022-10-13T04:21:23;97101.63;;;17.64;92.61
40502;BME280;29631;49.168;9.848;2022-10-13T04:23:49;97097.44;;;17.68;92.45
40502;BME280;29631;49.168;9.848;2022-10-13T04:26:19;97102.06;;;17.73;92.05
40502;BME280;29631;49.168;9.848;2022-10-13T04:28:47;97094.31;;;17.71;92.18
40502;BME280;29631;49.168;9.848;2022-10-13T04:31:13;97097.06;;;17.76;92.19
40502;BME280;29631;49.168;9.848;2022-10-13T04:33:39;97109.44;;;17.82;91.98
40502;BME280;29631;49.168;9.848;2022-10-13T04:36:07;97091.97;;;17.75;92.99
40502;BME280;29631;49.168;9.848;2022-10-13T04:38:33;97086.97;;;17.78;92.06
40502;BME280;29631;49.168;9.848;2022-10-13T04:41:04;97088.09;;;17.82;92.45
40502;BME280;29631;49.168;9.848;2022-10-13T04:43:31;97085.81;;;17.74;92.64
40502;BME280;29631;49.168;9.848;2022-10-13T04:46:13;97084.66;;;17.70;92.38
40502;BME280;29631;49.168;9.848;2022-10-13T04:48:39;97083.63;;;17.71;92.44
40502;BME280;29631;49.168;9.848;2022-10-13T04:51:11;97088.38;;;17.69;92.83
40502;BME280;29631;49.168;9.848;2022-10-13T04:53:37;97079.97;;;17.61;92.72
40502;BME280;29631;49.168;9.848;2022-10-13T04:56:10;97080.56;;;17.51;93.22
40502;BME280;29631;49.168;9.848;2022-10-13T04:58:37;97089.50;;;17.57;93.46
40502;BME280;29631;49.168;9.848;2022-10-13T05:01:05;97089.34;;;17.63;92.69
40502;BME280;29631;49.168;9.848;2022-10-13T05:03:32;97084.97;;;17.57;93.11
40502;BME280;29631;49.168;9.848;2022-10-13T05:05:57;97080.75;;;17.61;93.23
40502;BME280;29631;49.168;9.848;2022-10-13T05:08:23;97075.22;;;17.63;93.31
40502;BME280;29631;49.168;9.848;2022-10-13T05:10:58;97064.28;;;17.64;93.15
40502;BME280;29631;49.168;9.848;2022-10-13T05:13:24;97077.00;;;17.74;93.50
40502;BME280;29631;49.168;9.848;2022-10-13T05:15:51;97079.34;;;17.70;92.88
40502;BME280;29631;49.168;9.848;2022-10-13T05:18:17;97082.66;;;17.77;94.02
40502;BME280;29631;49.168;9.848;2022-10-13T05:20:43;97080.66;;;17.84;93.59
40502;BME280;29631;49.168;9.848;2022-10-13T05:23:09;97074.66;;;17.77;92.96
40502;BME280;29631;49.168;9.848;2022-10-13T05:25:36;97081.13;;;17.81;93.28
40502;BME280;29631;49.168;9.848;2022-10-13T05:28:04;97075.34;;;17.84;93.63
40502;BME280;29631;49.168;9.848;2022-10-13T05:30:30;97073.13;;;17.81;93.12
40502;BME280;29631;49.168;9.848;2022-10-13T05:32:56;97080.19;;;17.87;92.88
40502;BME280;29631;49.168;9.848;2022-10-13T05:35:23;97084.38;;;17.83;93.75
40502;BME280;29631;49.168;9.848;2022-10-13T05:37:49;97080.00;;;17.77;93.24
40502;BME280;29631;49.168;9.848;2022-10-13T05:40:15;97080.47;;;17.74;93.57
40502;BME280;29631;49.168;9.848;2022-10-13T05:42:41;97084.22;;;17.73;93.58
40502;BME280;29631;49.168;9.848;2022-10-13T05:45:10;97092.31;;;17.78;94.01
40502;BME280;29631;49.168;9.848;2022-10-13T05:47:36;97081.53;;;17.73;94.49
40502;BME280;29631;49.168;9.848;2022-10-13T05:50:02;97081.28;;;17.75;94.37
40502;BME280;29631;49.168;9.848;2022-10-13T05:52:28;97068.09;;;17.68;93.72
40502;BME280;29631;49.168;9.848;2022-10-13T05:55:01;97077.59;;;17.76;93.76
40502;BME280;29631;49.168;9.848;2022-10-13T05:57:32;97082.19;;;17.80;94.11
40502;BME280;29631;49.168;9.848;2022-10-13T06:00:15;97090.19;;;17.80;94.61
40502;BME280;29631;49.168;9.848;2022-10-13T06:05:18;97086.00;;;17.84;93.97
40502;BME280;29631;49.168;9.848;2022-10-13T06:07:46;97089.72;;;17.83;94.29
40502;BME280;29631;49.168;9.848;2022-10-13T06:10:13;97108.47;;;17.88;94.32
40502;BME280;29631;49.168;9.848;2022-10-13T06:12:39;97106.06;;;17.87;94.47
40502;BME280;29631;49.168;9.848;2022-10-13T06:15:06;97088.09;;;17.82;94.37
40502;BME280;29631;49.168;9.848;2022-10-13T06:17:36;97094.09;;;17.89;94.80
40502;BME280;29631;49.168;9.848;2022-10-13T06:20:04;97092.47;;;17.88;94.41
40502;BME280;29631;49.168;9.848;2022-10-13T06:22:32;97087.47;;;17.92;94.69
40502;BME280;29631;49.168;9.848;2022-10-13T06:24:58;97075.50;;;17.94;94.72
40502;BME280;29631;49.168;9.848;2022-10-13T06:27:24;97082.66;;;18.05;93.83
40502;BME280;29631;49.168;9.848;2022-10-13T06:29:50;97077.22;;;18.00;94.66
40502;BME280;29631;49.168;9.848;2022-10-13T06:32:16;97077.31;;;18.05;94.26
40502;BME280;29631;49.168;9.848;2022-10-13T06:34:41;97072.78;;;18.06;94.04
40502;BME280;29631;49.168;9.848;2022-10-13T06:37:08;97070.81;;;18.01;94.68
40502;BME280;29631;49.168;9.848;2022-10-13T06:39:34;97067.13;;;18.02;94.71
40502;BME280;29631;49.168;9.848;2022-10-13T06:42:00;97068.72;;;18.03;94.18
40502;BME280;29631;49.168;9.848;2022-10-13T06:44:25;97081.13;;;18.09;94.38
40502;BME280;29631;49.168;9.848;2022-10-13T06:46:51;97063.78;;;17.95;94.81
40502;BME280;29631;49.168;9.848;2022-10-13T06:49:17;97070.75;;;17.96;94.87
40502;BME280;29631;49.168;9.848;2022-10-13T06:51:43;97103.03;;;18.11;94.32
40502;BME280;29631;49.168;9.848;2022-10-13T06:54:08;97094.25;;;17.99;94.79
40502;BME280;29631;49.168;9.848;2022-10-13T06:56:34;97082.63;;;17.89;94.98
40502;BME280;29631;49.168;9.848;2022-10-13T06:59:00;97101.72;;;17.97;95.26
40502;BME280;29631;49.168;9.848;2022-10-13T07:01:25;97088.75;;;17.89;95.41
40502;BME280;29631;49.168;9.848;2022-10-13T07:03:51;97078.72;;;17.80;95.03
40502;BME280;29631;49.168;9.848;2022-10-13T07:06:17;97098.38;;;17.90;95.78
40502;BME280;29631;49.168;9.848;2022-10-13T07:08:43;97095.38;;;17.87;95.66
40502;BME280;29631;49.168;9.848;2022-10-13T07:11:11;97087.00;;;17.95;95.87
40502;BME280;29631;49.168;9.848;2022-10-13T07:13:39;97079.78;;;17.95;95.43
40502;BME280;29631;49.168;9.848;2022-10-13T07:16:07;97084.75;;;18.03;96.08
40502;BME280;29631;49.168;9.848;2022-10-13T07:18:34;97087.03;;;18.11;95.81
40502;BME280;29631;49.168;9.848;2022-10-13T07:21:00;97075.06;;;18.14;95.22
40502;BME280;29631;49.168;9.848;2022-10-13T07:23:27;97080.25;;;18.20;95.14
40502;BME280;29631;49.168;9.848;2022-10-13T07:25:54;97073.25;;;18.19;95.39
40502;BME280;29631;49.168;9.848;2022-10-13T07:28:23;97082.53;;;18.28;95.52
40502;BME280;29631;49.168;9.848;2022-10-13T07:30:49;97070.72;;;18.24;95.18
40502;BME280;29631;49.168;9.848;2022-10-13T07:33:15;97074.44;;;18.23;95.07
40502;BME280;29631;49.168;9.848;2022-10-13T07:35:41;97072.66;;;18.28;95.38
40502;BME280;29631;49.168;9.848;2022-10-13T07:38:07;97068.59;;;18.26;95.55
40502;BME280;29631;49.168;9.848;2022-10-13T07:40:34;97075.25;;;18.23;96.16
40502;BME280;29631;49.168;9.848;2022-10-13T07:43:00;97066.19;;;18.24;95.91
40502;BME280;29631;49.168;9.848;2022-10-13T07:45:27;97064.09;;;18.26;96.39
40502;BME280;29631;49.168;9.848;2022-10-13T07:47:53;97077.19;;;18.28;96.32
40502;BME280;29631;49.168;9.848;2022-10-13T07:50:19;97055.66;;;18.18;96.63
40502;BME280;29631;49.168;9.848;2022-10-13T07:52:45;97077.59;;;18.36;96.81
40502;BME280;29631;49.168;9.848;2022-10-13T07:55:11;97061.81;;;18.35;97.01
40502;BME280;29631;49.168;9.848;2022-10-13T07:57:37;97065.53;;;18.34;96.66
40502;BME280;29631;49.168;9.848;2022-10-13T08:00:05;97066.44;;;18.39;96.86
40502;BME280;29631;49.168;9.848;2022-10-13T08:02:31;97068.59;;;18.42;97.25
40502;BME280;29631;49.168;9.848;2022-10-13T08:04:57;97074.34;;;18.51;96.94
40502;BME280;29631;49.168;9.848;2022-10-13T08:07:23;97049.38;;;18.40;97.02
40502;BME280;29631;49.168;9.848;2022-10-13T08:09:49;97055.97;;;18.38;97.27
40502;BME280;29631;49.168;9.848;2022-10-13T08:12:14;97058.66;;;18.38;97.21
40502;BME280;29631;49.168;9.848;2022-10-13T08:14:40;97064.41;;;18.46;97.18
40502;BME280;29631;49.168;9.848;2022-10-13T08:17:06;97068.28;;;18.55;97.54
40502;BME280;29631;49.168;9.848;2022-10-13T08:19:33;97053.22;;;18.49;97.10
40502;BME280;29631;49.168;9.848;2022-10-13T08:21:58;97074.13;;;18.69;97.17
40502;BME280;29631;49.168;9.848;2022-10-13T08:24:24;97069.25;;;18.66;97.55
40502;BME280;29631;49.168;9.848;2022-10-13T08:26:50;97061.94;;;18.78;97.67
40502;BME280;29631;49.168;9.848;2022-10-13T08:29:16;97049.31;;;18.73;97.08
40502;BME280;29631;49.168;9.848;2022-10-13T08:31:42;97066.28;;;18.84;97.30
40502;BME280;29631;49.168;9.848;2022-10-13T08:34:09;97062.09;;;18.88;96.88
40502;BME280;29631;49.168;9.848;2022-10-13T08:36:36;97065.81;;;18.87;97.63
40502;BME280;29631;49.168;9.848;2022-10-13T08:39:03;97054.50;;;18.80;97.15
40502;BME280;29631;49.168;9.848;2022-10-13T08:41:37;97034.09;;;18.74;97.62
40502;BME280;29631;49.168;9.848;2022-10-13T08:44:34;97038.00;;;18.83;97.46
40502;BME280;29631;49.168;9.848;2022-10-13T08:50:19;97048.31;;;18.95;97.29
40502;BME280;29631;49.168;9.848;2022-10-13T08:52:59;97061.00;;;19.05;97.52
40502;BME280;29631;49.168;9.848;2022-10-13T08:55:39;97043.09;;;19.05;97.21
40502;BME280;29631;49.168;9.848;2022-10-13T09:00:43;97042.63;;;19.51;96.20
40502;BME280;29631;49.168;9.848;2022-10-13T09:03:28;97050.00;;;20.18;95.23
40502;BME280;29631;49.168;9.848;2022-10-13T09:11:51;97014.22;;;22.22;89.65
40502;BME280;29631;49.168;9.848;2022-10-13T09:14:35;97035.16;;;22.70;88.93
40502;BME280;29631;49.168;9.848;2022-10-13T09:17:22;97041.03;;;22.97;89.24
40502;BME280;29631;49.168;9.848;2022-10-13T09:22:31;97049.06;;;23.22;89.04
40502;BME280;29631;49.168;9.848;2022-10-13T09:25:17;97054.94;;;23.39;88.90
40502;BME280;29631;49.168;9.848;2022-10-13T09:27:56;97038.78;;;23.39;88.87
40502;BME280;29631;49.168;9.848;2022-10-13T09:35:44;97042.03;;;23.36;88.69
40502;BME280;29631;49.168;9.848;2022-10-13T09:38:22;97045.09;;;23.09;89.97
40502;BME280;29631;49.168;9.848;2022-10-13T09:41:06;97044.81;;;22.91;90.59
40502;BME280;29631;49.168;9.848;2022-10-13T09:46:30;97036.53;;;22.48;91.53
40502;BME280;29631;49.168;9.848;2022-10-13T09:51:46;97018.53;;;22.33;92.78
40502;BME280;29631;49.168;9.848;2022-10-13T09:57:04;97022.81;;;22.04;92.49
40502;BME280;29631;49.168;9.848;2022-10-13T09:59:44;97022.78;;;21.99;93.28
40502;BME280;29631;49.168;9.848;2022-10-13T10:02:36;97016.34;;;21.95;93.33
40502;BME280;29631;49.168;9.848;2022-10-13T10:07:52;97010.47;;;22.08;93.17
40502;BME280;29631;49.168;9.848;2022-10-13T10:10:32;97020.13;;;22.04;92.71
40502;BME280;29631;49.168;9.848;2022-10-13T10:13:00;97009.09;;;21.91;92.72
40502;BME280;29631;49.168;9.848;2022-10-13T10:16:08;97023.84;;;21.98;92.67
40502;BME280;29631;49.168;9.848;2022-10-13T10:18:54;97022.81;;;22.04;92.37
40502;BME280;29631;49.168;9.848;2022-10-13T10:27:16;97015.81;;;21.89;93.34
40502;BME280;29631;49.168;9.848;2022-10-13T10:30:35;97016.88;;;21.83;93.48
40502;BME280;29631;49.168;9.848;2022-10-13T10:33:10;97026.50;;;21.74;93.71
40502;BME280;29631;49.168;9.848;2022-10-13T10:38:47;97015.78;;;21.74;93.36
40502;BME280;29631;49.168;9.848;2022-10-13T10:41:52;96999.38;;;21.65;93.70
40502;BME280;29631;49.168;9.848;2022-10-13T10:44:31;97013.63;;;21.71;93.99
40502;BME280;29631;49.168;9.848;2022-10-13T10:47:04;97010.13;;;21.70;93.50
40502;BME280;29631;49.168;9.848;2022-10-13T10:49:35;97000.72;;;21.58;94.00
40502;BME280;29631;49.168;9.848;2022-10-13T10:52:07;96962.22;;;21.27;93.77
40502;BME280;29631;49.168;9.848;2022-10-13T10:54:52;97006.88;;;21.63;93.66
40502;BME280;29631;49.168;9.848;2022-10-13T10:57:28;96984.06;;;21.56;93.80
40502;BME280;29631;49.168;9.848;2022-10-13T11:08:43;96982.94;;;21.47;93.71
40502;BME280;29631;49.168;9.848;2022-10-13T11:19:37;96970.50;;;21.16;93.97
40502;BME280;29631;49.168;9.848;2022-10-13T11:43:52;96947.41;;;21.10;93.87
40502;BME280;29631;49.168;9.848;2022-10-13T11:47:28;96940.72;;;21.13;93.41
40502;BME280;29631;49.168;9.848;2022-10-13T11:49:50;96948.81;;;21.22;93.39
40502;BME280;29631;49.168;9.848;2022-10-13T11:55:13;96937.56;;;21.30;93.27
40502;BME280;29631;49.168;9.848;2022-10-13T11:57:40;96922.00;;;21.32;92.67
40502;BME280;29631;49.168;9.848;2022-10-13T12:00:15;96920.94;;;21.33;92.66
40502;BME280;29631;49.168;9.848;2022-10-13T12:02:52;96920.41;;;21.36;92.87
40502;BME280;29631;49.168;9.848;2022-10-13T12:05:27;96902.94;;;21.29;92.48
40502;BME280;29631;49.168;9.848;2022-10-13T12:07:58;96896.50;;;21.30;93.03
40502;BME280;29631;49.168;9.848;2022-10-13T12:10:35;96904.56;;;21.35;92.77
40502;BME280;29631;49.168;9.848;2022-10-13T12:13:03;96899.75;;;21.32;92.90
40502;BME280;29631;49.168;9.848;2022-10-13T12:15:38;96898.16;;;21.46;92.67
40502;BME280;29631;49.168;9.848;2022-10-13T12:20:57;96902.41;;;21.37;92.66
40502;BME280;29631;49.168;9.848;2022-10-13T12:23:27;96898.13;;;21.36;92.72
40502;BME280;29631;49.168;9.848;2022-10-13T12:25:53;96904.28;;;21.31;92.20
40502;BME280;29631;49.168;9.848;2022-10-13T12:31:48;96902.41;;;21.32;92.53
40502;BME280;29631;49.168;9.848;2022-10-13T12:34:25;96902.97;;;21.39;92.26
40502;BME280;29631;49.168;9.848;2022-10-13T12:37:01;96908.34;;;21.39;91.88
40502;BME280;29631;49.168;9.848;2022-10-13T12:39:31;96888.47;;;21.30;91.75
40502;BME280;29631;49.168;9.848;2022-10-13T12:41:59;96903.25;;;21.42;91.68
40502;BME280;29631;49.168;9.848;2022-10-13T12:44:27;96876.91;;;21.24;91.30
40502;BME280;29631;49.168;9.848;2022-10-13T12:47:00;96882.81;;;21.26;91.28
40502;BME280;29631;49.168;9.848;2022-10-13T12:49:33;96885.78;;;21.25;91.36
40502;BME280;29631;49.168;9.848;2022-10-13T12:52:16;96886.31;;;21.27;91.07
40502;BME280;29631;49.168;9.848;2022-10-13T12:54:51;96887.09;;;21.22;90.97
40502;BME280;29631;49.168;9.848;2022-10-13T12:57:29;96889.00;;;21.32;91.22
40502;BME280;29631;49.168;9.848;2022-10-13T13:00:02;96885.78;;;21.35;90.90
40502;BME280;29631;49.168;9.848;2022-10-13T13:02:31;96878.28;;;21.37;91.03
40502;BME280;29631;49.168;9.848;2022-10-13T13:04:58;96882.59;;;21.53;90.82
40502;BME280;29631;49.168;9.848;2022-10-13T13:07:35;96870.00;;;21.58;90.80
40502;BME280;29631;49.168;9.848;2022-10-13T13:12:35;96871.34;;;21.81;90.65
40502;BME280;29631;49.168;9.848;2022-10-13T13:15:37;96883.16;;;21.94;90.67
40502;BME280;29631;49.168;9.848;2022-10-13T13:18:23;96879.38;;;22.05;90.56
40502;BME280;29631;49.168;9.848;2022-10-13T13:20:53;96862.97;;;22.27;90.51
40502;BME280;29631;49.168;9.848;2022-10-13T13:23:20;96856.50;;;22.96;88.79
40502;BME280;29631;49.168;9.848;2022-10-13T13:26:05;96861.00;;;23.53;87.24
40502;BME280;29631;49.168;9.848;2022-10-13T13:28:34;96863.38;;;23.93;86.22
40502;BME280;29631;49.168;9.848;2022-10-13T13:31:00;96870.50;;;23.84;86.75
40502;BME280;29631;49.168;9.848;2022-10-13T13:33:26;96821.84;;;23.38;87.53
40502;BME280;29631;49.168;9.848;2022-10-13T13:35:52;96841.22;;;23.35;88.35
40502;BME280;29631;49.168;9.848;2022-10-13T13:38:18;96842.97;;;23.16;87.86
40502;BME280;29631;49.168;9.848;2022-10-13T13:40:44;96864.25;;;23.17;88.45
40502;BME280;29631;49.168;9.848;2022-10-13T13:43:10;96861.00;;;23.15;88.11
40502;BME280;29631;49.168;9.848;2022-10-13T13:45:35;96864.44;;;23.21;88.17
40502;BME280;29631;49.168;9.848;2022-10-13T13:48:02;96858.03;;;23.17;87.98
40502;BME280;29631;49.168;9.848;2022-10-13T13:50:33;96847.84;;;23.14;87.92
40502;BME280;29631;49.168;9.848;2022-10-13T13:53:00;96852.13;;;23.15;88.00
40502;BME280;29631;49.168;9.848;2022-10-13T13:55:27;96840.84;;;23.13;87.97
40502;BME280;29631;49.168;9.848;2022-10-13T13:57:54;96827.66;;;23.11;87.83
40502;BME280;29631;49.168;9.848;2022-10-13T14:00:21;96847.56;;;23.15;87.74
40502;BME280;29631;49.168;9.848;2022-10-13T14:02:46;96841.88;;;23.17;87.47
40502;BME280;29631;49.168;9.848;2022-10-13T14:05:12;96814.00;;;23.03;87.05
40502;BME280;29631;49.168;9.848;2022-10-13T14:07:39;96838.16;;;23.08;87.17
40502;BME280;29631;49.168;9.848;2022-10-13T14:10:07;96829.31;;;23.07;87.26
40502;BME280;29631;49.168;9.848;2022-10-13T14:12:33;96831.19;;;23.07;87.56
40502;BME280;29631;49.168;9.848;2022-10-13T14:14:59;96828.50;;;23.07;87.01
40502;BME280;29631;49.168;9.848;2022-10-13T14:17:26;96834.94;;;23.11;87.14
40502;BME280;29631;49.168;9.848;2022-10-13T14:19:52;96844.03;;;23.15;86.67
40502;BME280;29631;49.168;9.848;2022-10-13T14:22:18;96840.59;;;23.09;87.29
40502;BME280;29631;49.168;9.848;2022-10-13T14:24:45;96849.44;;;23.15;87.36
40502;BME280;29631;49.168;9.848;2022-10-13T14:27:10;96846.72;;;23.15;87.45
40502;BME280;29631;49.168;9.848;2022-10-13T14:29:36;96844.03;;;23.15;87.42
40502;BME280;29631;49.168;9.848;2022-10-13T14:32:02;96829.59;;;23.06;87.00
40502;BME280;29631;49.168;9.848;2022-10-13T14:34:28;96847.84;;;23.14;87.33
40502;BME280;29631;49.168;9.848;2022-10-13T14:36:54;96840.59;;;23.09;87.37
40502;BME280;29631;49.168;9.848;2022-10-13T14:39:20;96846.78;;;23.10;86.91
40502;BME280;29631;49.168;9.848;2022-10-13T14:41:46;96847.31;;;23.12;86.84
40502;BME280;29631;49.168;9.848;2022-10-13T14:44:13;96836.06;;;23.05;86.91
40502;BME280;29631;49.168;9.848;2022-10-13T14:46:40;96828.25;;;22.98;87.23
40502;BME280;29631;49.168;9.848;2022-10-13T14:49:06;96844.13;;;23.05;86.86
40502;BME280;29631;49.168;9.848;2022-10-13T14:51:32;96840.91;;;23.03;86.70
40502;BME280;29631;49.168;9.848;2022-10-13T14:53:57;96840.63;;;22.99;87.08
40502;BME280;29631;49.168;9.848;2022-10-13T14:56:28;96849.50;;;22.95;86.82
40502;BME280;29631;49.168;9.848;2022-10-13T14:58:57;96846.31;;;22.93;86.93
40502;BME280;29631;49.168;9.848;2022-10-13T15:01:23;96849.00;;;22.93;87.40
40502;BME280;29631;49.168;9.848;2022-10-13T15:03:49;96843.41;;;22.84;87.05
40502;BME280;29631;49.168;9.848;2022-10-13T15:06:21;96837.19;;;22.84;87.08